sensor_id;sensor_type;location;lat;lon;timestamp;temperature;humidity
4090;DHT22;2059;48.538;12.146;2023-09-18T00:01:44;20.50;99.90
4090;DHT22;2059;48.538;12.146;2023-09-18T00:06:46;20.40;99.90
4090;DHT22;2059;48.538;12.146;2023-09-18T00:11:50;20.40;99.90
4090;DHT22;2059;48.538;12.146;2023-09-18T00:16:53;20.30;99.90
4090;DHT22;2059;48.538;12.146;2023-09-18T00:21:57;20.30;99.90
4090;DHT22;2059;48.538;12.146;2023-09-18T00:27:03;20.30;99.90
4090;DHT22;2059;48.538;12.146;2023-09-18T00:32:05;20.20;99.90
4090;DHT22;2059;48.538;12.146;2023-09-18T00:37:07;20.20;99.90
4090;DHT22;2059;48.538;12.146;2023-09-18T00:42:12;20.20;99.90
4090;DHT22;2059;48.538;12.146;2023-09-18T00:47:16;20.20;99.90
4090;DHT22;2059;48.538;12.146;2023-09-18T00:52:20;20.10;99.90
4090;DHT22;2059;48.538;12.146;2023-09-18T00:57:24;20.10;99.90
4090;DHT22;2059;48.538;12.146;2023-09-18T01:02:26;20.00;99.90
4090;DHT22;2059;48.538;12.146;2023-09-18T01:07:28;20.00;99.90
4090;DHT22;2059;48.538;12.146;2023-09-18T01:12:41;20.00;99.90
4090;DHT22;2059;48.538;12.146;2023-09-18T01:17:46;20.00;99.90
4090;DHT22;2059;48.538;12.146;2023-09-18T01:22:49;19.90;99.90
4090;DHT22;2059;48.538;12.146;2023-09-18T01:27:51;19.90;99.90
4090;DHT22;2059;48.538;12.146;2023-09-18T01:32:53;19.90;99.90
4090;DHT22;2059;48.538;12.146;2023-09-18T01:37:58;19.80;99.90
4090;DHT22;2059;48.538;12.146;2023-09-18T01:43:01;19.80;99.90
4090;DHT22;2059;48.538;12.146;2023-09-18T01:48:04;19.70;99.90
4090;DHT22;2059;48.538;12.146;2023-09-18T01:53:07;19.70;99.90
4090;DHT22;2059;48.538;12.146;2023-09-18T01:58:09;19.70;99.90
4090;DHT22;2059;48.538;12.146;2023-09-18T02:03:14;19.70;99.90
4090;DHT22;2059;48.538;12.146;2023-09-18T02:08:20;19.60;99.90
4090;DHT22;2059;48.538;12.146;2023-09-18T02:13:21;19.60;99.90
4090;DHT22;2059;48.538;12.146;2023-09-18T02:18:24;19.60;99.90
4090;DHT22;2059;48.538;12.146;2023-09-18T02:23:27;19.60;99.90
4090;DHT22;2059;48.538;12.146;2023-09-18T02:28:29;19.50;99.90
4090;DHT22;2059;48.538;12.146;2023-09-18T02:33:30;19.60;99.90
4090;DHT22;2059;48.538;12.146;2023-09-18T02:38:34;19.50;99.90
4090;DHT22;2059;48.538;12.146;2023-09-18T02:43:35;19.40;99.90
4090;DHT22;2059;48.538;12.146;2023-09-18T02:48:38;19.40;99.90
4090;DHT22;2059;48.538;12.146;2023-09-18T02:53:41;19.50;99.90
4090;DHT22;2059;48.538;12.146;2023-09-18T02:58:43;19.50;99.90
4090;DHT22;2059;48.538;12.146;2023-09-18T03:03:44;19.40;99.90
4090;DHT22;2059;48.538;12.146;2023-09-18T03:08:48;19.40;99.90
4090;DHT22;2059;48.538;12.146;2023-09-18T03:13:49;19.20;99.90
4090;DHT22;2059;48.538;12.146;2023-09-18T03:18:51;19.30;99.90
4090;DHT22;2059;48.538;12.146;2023-09-18T03:23:54;19.20;99.90
4090;DHT22;2059;48.538;12.146;2023-09-18T03:28:58;19.20;99.90
4090;DHT22;2059;48.538;12.146;2023-09-18T03:34:00;19.20;99.90
4090;DHT22;2059;48.538;12.146;2023-09-18T03:39:03;19.20;99.90
4090;DHT22;2059;48.538;12.146;2023-09-18T03:44:05;19.10;99.90
4090;DHT22;2059;48.538;12.146;2023-09-18T03:49:07;19.10;99.90
4090;DHT22;2059;48.538;12.146;2023-09-18T03:54:10;19.10;99.90
4090;DHT22;2059;48.538;12.146;2023-09-18T03:59:12;19.00;99.90
4090;DHT22;2059;48.538;12.146;2023-09-18T04:04:14;19.00;99.90
4090;DHT22;2059;48.538;12.146;2023-09-18T04:09:17;19.00;99.90
4090;DHT22;2059;48.538;12.146;2023-09-18T04:14:19;19.00;99.90
4090;DHT22;2059;48.538;12.146;2023-09-18T04:19:21;19.00;99.90
4090;DHT22;2059;48.538;12.146;2023-09-18T04:24:25;19.00;99.90
4090;DHT22;2059;48.538;12.146;2023-09-18T04:29:27;18.90;99.90
4090;DHT22;2059;48.538;12.146;2023-09-18T04:34:28;18.90;99.90
4090;DHT22;2059;48.538;12.146;2023-09-18T04:39:31;19.00;99.90
4090;DHT22;2059;48.538;12.146;2023-09-18T04:44:34;18.90;99.90
4090;DHT22;2059;48.538;12.146;2023-09-18T04:49:36;18.90;99.90
4090;DHT22;2059;48.538;12.146;2023-09-18T04:54:39;18.90;99.90
4090;DHT22;2059;48.538;12.146;2023-09-18T04:59:41;18.80;99.90
4090;DHT22;2059;48.538;12.146;2023-09-18T05:04:43;18.80;99.90
4090;DHT22;2059;48.538;12.146;2023-09-18T05:09:46;18.80;99.90
4090;DHT22;2059;48.538;12.146;2023-09-18T05:14:49;18.80;99.90
4090;DHT22;2059;48.538;12.146;2023-09-18T05:19:51;18.90;99.90
4090;DHT22;2059;48.538;12.146;2023-09-18T05:24:57;18.90;99.90
4090;DHT22;2059;48.538;12.146;2023-09-18T05:29:59;18.90;99.90
4090;DHT22;2059;48.538;12.146;2023-09-18T05:35:01;19.00;99.90
4090;DHT22;2059;48.538;12.146;2023-09-18T05:40:10;19.00;99.90
4090;DHT22;2059;48.538;12.146;2023-09-18T05:45:12;19.00;99.90
4090;DHT22;2059;48.538;12.146;2023-09-18T05:50:15;19.10;99.90
4090;DHT22;2059;48.538;12.146;2023-09-18T05:55:18;19.20;99.90
4090;DHT22;2059;48.538;12.146;2023-09-18T06:00:20;19.20;99.90
4090;DHT22;2059;48.538;12.146;2023-09-18T06:05:22;19.30;99.90
4090;DHT22;2059;48.538;12.146;2023-09-18T06:10:26;19.50;99.90
4090;DHT22;2059;48.538;12.146;2023-09-18T06:15:28;19.50;99.90
4090;DHT22;2059;48.538;12.146;2023-09-18T06:20:29;19.60;99.90
4090;DHT22;2059;48.538;12.146;2023-09-18T06:25:33;19.80;99.90
4090;DHT22;2059;48.538;12.146;2023-09-18T06:30:34;19.90;99.90
4090;DHT22;2059;48.538;12.146;2023-09-18T06:35:36;20.10;99.90
4090;DHT22;2059;48.538;12.146;2023-09-18T06:40:40;20.40;99.90
4090;DHT22;2059;48.538;12.146;2023-09-18T06:45:41;20.70;99.90
4090;DHT22;2059;48.538;12.146;2023-09-18T06:50:43;21.10;99.90
4090;DHT22;2059;48.538;12.146;2023-09-18T06:55:46;21.30;99.90
4090;DHT22;2059;48.538;12.146;2023-09-18T07:00:48;21.40;99.90
4090;DHT22;2059;48.538;12.146;2023-09-18T07:05:51;21.60;99.90
4090;DHT22;2059;48.538;12.146;2023-09-18T07:10:55;21.60;99.90
4090;DHT22;2059;48.538;12.146;2023-09-18T07:15:56;21.40;99.90
4090;DHT22;2059;48.538;12.146;2023-09-18T07:20:58;21.50;99.90
4090;DHT22;2059;48.538;12.146;2023-09-18T07:26:01;21.60;99.90
4090;DHT22;2059;48.538;12.146;2023-09-18T07:31:05;21.70;99.90
4090;DHT22;2059;48.538;12.146;2023-09-18T07:36:07;21.90;99.90
4090;DHT22;2059;48.538;12.146;2023-09-18T07:41:11;22.20;99.90
4090;DHT22;2059;48.538;12.146;2023-09-18T07:46:15;22.40;99.90
4090;DHT22;2059;48.538;12.146;2023-09-18T07:51:17;22.60;99.90
4090;DHT22;2059;48.538;12.146;2023-09-18T07:56:20;22.90;99.90
4090;DHT22;2059;48.538;12.146;2023-09-18T08:01:22;23.00;99.90
4090;DHT22;2059;48.538;12.146;2023-09-18T08:06:24;23.30;99.90
4090;DHT22;2059;48.538;12.146;2023-09-18T08:11:28;23.50;99.90
4090;DHT22;2059;48.538;12.146;2023-09-18T08:16:30;23.80;99.90
4090;DHT22;2059;48.538;12.146;2023-09-18T08:21:33;24.00;99.90
4090;DHT22;2059;48.538;12.146;2023-09-18T08:26:36;24.20;99.90
4090;DHT22;2059;48.538;12.146;2023-09-18T08:31:38;24.40;99.90
4090;DHT22;2059;48.538;12.146;2023-09-18T08:36:40;24.60;99.90
4090;DHT22;2059;48.538;12.146;2023-09-18T08:41:43;24.70;99.90
4090;DHT22;2059;48.538;12.146;2023-09-18T08:46:46;25.10;99.90
4090;DHT22;2059;48.538;12.146;2023-09-18T08:51:48;25.00;99.90
4090;DHT22;2059;48.538;12.146;2023-09-18T08:56:52;24.90;99.90
4090;DHT22;2059;48.538;12.146;2023-09-18T09:01:53;25.20;99.90
4090;DHT22;2059;48.538;12.146;2023-09-18T09:06:55;25.60;99.90
4090;DHT22;2059;48.538;12.146;2023-09-18T09:12:00;25.60;99.80
4090;DHT22;2059;48.538;12.146;2023-09-18T09:17:03;25.80;99.90
4090;DHT22;2059;48.538;12.146;2023-09-18T09:22:06;25.30;99.90
4090;DHT22;2059;48.538;12.146;2023-09-18T09:27:11;25.10;99.90
4090;DHT22;2059;48.538;12.146;2023-09-18T09:32:16;25.00;99.90
4090;DHT22;2059;48.538;12.146;2023-09-18T09:37:18;25.10;99.90
4090;DHT22;2059;48.538;12.146;2023-09-18T09:42:21;25.30;99.90
4090;DHT22;2059;48.538;12.146;2023-09-18T09:47:25;25.30;99.90
4090;DHT22;2059;48.538;12.146;2023-09-18T09:52:26;25.30;99.70
4090;DHT22;2059;48.538;12.146;2023-09-18T09:57:29;25.30;99.90
4090;DHT22;2059;48.538;12.146;2023-09-18T10:02:32;25.30;99.40
4090;DHT22;2059;48.538;12.146;2023-09-18T10:07:35;25.40;99.00
4090;DHT22;2059;48.538;12.146;2023-09-18T10:12:40;25.50;99.10
4090;DHT22;2059;48.538;12.146;2023-09-18T10:17:43;25.60;99.10
4090;DHT22;2059;48.538;12.146;2023-09-18T10:22:49;25.60;98.80
4090;DHT22;2059;48.538;12.146;2023-09-18T10:27:55;25.60;98.80
4090;DHT22;2059;48.538;12.146;2023-09-18T10:33:02;25.60;98.90
4090;DHT22;2059;48.538;12.146;2023-09-18T10:38:05;25.80;98.50
4090;DHT22;2059;48.538;12.146;2023-09-18T10:43:11;25.90;98.50
4090;DHT22;2059;48.538;12.146;2023-09-18T10:48:13;26.00;98.90
4090;DHT22;2059;48.538;12.146;2023-09-18T10:53:18;26.20;97.40
4090;DHT22;2059;48.538;12.146;2023-09-18T10:58:27;26.20;97.40
4090;DHT22;2059;48.538;12.146;2023-09-18T11:03:28;26.40;97.20
4090;DHT22;2059;48.538;12.146;2023-09-18T11:08:32;26.50;96.90
4090;DHT22;2059;48.538;12.146;2023-09-18T11:13:39;26.60;96.40
4090;DHT22;2059;48.538;12.146;2023-09-18T11:18:41;26.60;95.50
4090;DHT22;2059;48.538;12.146;2023-09-18T11:23:43;26.40;95.60
4090;DHT22;2059;48.538;12.146;2023-09-18T11:28:47;26.60;95.40
4090;DHT22;2059;48.538;12.146;2023-09-18T11:33:52;26.80;95.10
4090;DHT22;2059;48.538;12.146;2023-09-18T11:38:55;26.60;95.20
4090;DHT22;2059;48.538;12.146;2023-09-18T11:44:33;26.30;95.20
4090;DHT22;2059;48.538;12.146;2023-09-18T11:49:38;26.20;95.40
4090;DHT22;2059;48.538;12.146;2023-09-18T11:54:42;26.30;96.10
4090;DHT22;2059;48.538;12.146;2023-09-18T11:59:47;26.40;96.20
4090;DHT22;2059;48.538;12.146;2023-09-18T12:04:50;26.40;96.80
4090;DHT22;2059;48.538;12.146;2023-09-18T12:09:52;26.50;96.60
4090;DHT22;2059;48.538;12.146;2023-09-18T12:14:56;26.20;96.40
4090;DHT22;2059;48.538;12.146;2023-09-18T12:19:58;26.20;97.10
4090;DHT22;2059;48.538;12.146;2023-09-18T12:25:10;26.40;96.70
4090;DHT22;2059;48.538;12.146;2023-09-18T12:30:13;26.10;97.50
4090;DHT22;2059;48.538;12.146;2023-09-18T12:40:33;26.20;97.50
4090;DHT22;2059;48.538;12.146;2023-09-18T12:45:37;26.40;97.10
4090;DHT22;2059;48.538;12.146;2023-09-18T12:50:39;26.40;96.60
4090;DHT22;2059;48.538;12.146;2023-09-18T12:55:41;26.10;96.60
4090;DHT22;2059;48.538;12.146;2023-09-18T13:00:49;26.10;97.10
4090;DHT22;2059;48.538;12.146;2023-09-18T13:05:52;25.70;96.00
4090;DHT22;2059;48.538;12.146;2023-09-18T13:10:55;25.30;95.70
4090;DHT22;2059;48.538;12.146;2023-09-18T13:16:00;25.10;95.40
4090;DHT22;2059;48.538;12.146;2023-09-18T13:21:09;24.70;96.10
4090;DHT22;2059;48.538;12.146;2023-09-18T13:26:12;24.80;96.70
4090;DHT22;2059;48.538;12.146;2023-09-18T13:31:15;24.70;97.40
4090;DHT22;2059;48.538;12.146;2023-09-18T13:36:18;24.80;97.60
4090;DHT22;2059;48.538;12.146;2023-09-18T13:41:20;24.30;96.60
4090;DHT22;2059;48.538;12.146;2023-09-18T13:46:24;23.90;96.90
4090;DHT22;2059;48.538;12.146;2023-09-18T13:51:26;23.80;97.10
4090;DHT22;2059;48.538;12.146;2023-09-18T13:56:28;23.80;97.50
4090;DHT22;2059;48.538;12.146;2023-09-18T14:01:31;23.50;97.90
4090;DHT22;2059;48.538;12.146;2023-09-18T14:06:33;23.20;98.20
4090;DHT22;2059;48.538;12.146;2023-09-18T14:11:36;23.20;98.70
4090;DHT22;2059;48.538;12.146;2023-09-18T14:16:40;23.00;99.30
4090;DHT22;2059;48.538;12.146;2023-09-18T14:21:41;22.80;99.80
4090;DHT22;2059;48.538;12.146;2023-09-18T14:26:43;22.70;99.90
4090;DHT22;2059;48.538;12.146;2023-09-18T14:31:47;22.30;99.90
4090;DHT22;2059;48.538;12.146;2023-09-18T14:36:49;22.20;99.90
4090;DHT22;2059;48.538;12.146;2023-09-18T14:41:50;21.90;99.90
4090;DHT22;2059;48.538;12.146;2023-09-18T14:46:54;21.70;99.90
4090;DHT22;2059;48.538;12.146;2023-09-18T14:51:56;21.80;99.90
4090;DHT22;2059;48.538;12.146;2023-09-18T14:56:58;21.70;99.90
4090;DHT22;2059;48.538;12.146;2023-09-18T15:02:03;21.60;99.90
4090;DHT22;2059;48.538;12.146;2023-09-18T15:07:05;21.40;99.90
4090;DHT22;2059;48.538;12.146;2023-09-18T15:12:08;21.50;99.90
4090;DHT22;2059;48.538;12.146;2023-09-18T15:17:13;21.50;99.90
4090;DHT22;2059;48.538;12.146;2023-09-18T15:22:15;21.40;99.90
4090;DHT22;2059;48.538;12.146;2023-09-18T15:27:17;21.30;99.90
4090;DHT22;2059;48.538;12.146;2023-09-18T15:32:20;21.30;99.90
4090;DHT22;2059;48.538;12.146;2023-09-18T15:37:23;21.30;99.90
4090;DHT22;2059;48.538;12.146;2023-09-18T15:42:25;21.10;99.90
4090;DHT22;2059;48.538;12.146;2023-09-18T15:47:28;21.00;99.90
4090;DHT22;2059;48.538;12.146;2023-09-18T15:52:30;21.00;99.90
4090;DHT22;2059;48.538;12.146;2023-09-18T15:57:32;21.00;99.90
4090;DHT22;2059;48.538;12.146;2023-09-18T16:02:36;21.00;99.90
4090;DHT22;2059;48.538;12.146;2023-09-18T16:07:39;21.00;99.90
4090;DHT22;2059;48.538;12.146;2023-09-18T16:12:42;20.90;99.90
4090;DHT22;2059;48.538;12.146;2023-09-18T16:17:45;20.80;99.90
4090;DHT22;2059;48.538;12.146;2023-09-18T16:22:47;20.70;99.90
4090;DHT22;2059;48.538;12.146;2023-09-18T16:27:49;20.80;99.90
4090;DHT22;2059;48.538;12.146;2023-09-18T16:32:56;20.80;99.90
4090;DHT22;2059;48.538;12.146;2023-09-18T16:37:58;20.80;99.90
4090;DHT22;2059;48.538;12.146;2023-09-18T16:43:00;20.80;99.90
4090;DHT22;2059;48.538;12.146;2023-09-18T16:48:04;20.70;99.90
4090;DHT22;2059;48.538;12.146;2023-09-18T16:53:06;20.80;99.90
4090;DHT22;2059;48.538;12.146;2023-09-18T16:58:08;20.70;99.90
4090;DHT22;2059;48.538;12.146;2023-09-18T17:03:12;20.70;99.90
4090;DHT22;2059;48.538;12.146;2023-09-18T17:08:14;20.60;99.90
4090;DHT22;2059;48.538;12.146;2023-09-18T17:13:17;20.70;99.90
4090;DHT22;2059;48.538;12.146;2023-09-18T17:18:23;20.70;99.90
4090;DHT22;2059;48.538;12.146;2023-09-18T17:23:25;20.50;99.90
4090;DHT22;2059;48.538;12.146;2023-09-18T17:28:28;20.40;99.90
4090;DHT22;2059;48.538;12.146;2023-09-18T17:33:31;20.20;99.90
4090;DHT22;2059;48.538;12.146;2023-09-18T17:38:33;20.00;99.90
4090;DHT22;2059;48.538;12.146;2023-09-18T17:43:36;19.80;99.90
4090;DHT22;2059;48.538;12.146;2023-09-18T17:48:39;19.70;99.90
4090;DHT22;2059;48.538;12.146;2023-09-18T17:53:41;19.80;99.90
4090;DHT22;2059;48.538;12.146;2023-09-18T17:58:43;19.50;99.90
4090;DHT22;2059;48.538;12.146;2023-09-18T18:03:47;19.60;99.90
4090;DHT22;2059;48.538;12.146;2023-09-18T18:08:51;19.50;99.90
4090;DHT22;2059;48.538;12.146;2023-09-18T18:13:53;19.40;99.90
4090;DHT22;2059;48.538;12.146;2023-09-18T18:18:58;19.40;99.90
4090;DHT22;2059;48.538;12.146;2023-09-18T18:24:00;19.40;99.90
4090;DHT22;2059;48.538;12.146;2023-09-18T18:29:04;19.50;99.90
4090;DHT22;2059;48.538;12.146;2023-09-18T18:34:07;19.40;99.90
4090;DHT22;2059;48.538;12.146;2023-09-18T18:39:10;19.40;99.90
4090;DHT22;2059;48.538;12.146;2023-09-18T18:44:12;19.50;99.90
4090;DHT22;2059;48.538;12.146;2023-09-18T18:49:15;19.50;99.90
4090;DHT22;2059;48.538;12.146;2023-09-18T18:54:17;19.50;99.90
4090;DHT22;2059;48.538;12.146;2023-09-18T18:59:19;19.50;99.90
4090;DHT22;2059;48.538;12.146;2023-09-18T19:04:23;19.50;99.90
4090;DHT22;2059;48.538;12.146;2023-09-18T19:09:25;19.50;99.90
4090;DHT22;2059;48.538;12.146;2023-09-18T19:14:27;19.50;99.90
4090;DHT22;2059;48.538;12.146;2023-09-18T19:19:30;19.60;99.90
4090;DHT22;2059;48.538;12.146;2023-09-18T19:24:32;19.60;99.90
4090;DHT22;2059;48.538;12.146;2023-09-18T19:29:34;19.60;99.90
4090;DHT22;2059;48.538;12.146;2023-09-18T19:34:38;19.60;99.90
4090;DHT22;2059;48.538;12.146;2023-09-18T19:39:40;19.60;99.90
4090;DHT22;2059;48.538;12.146;2023-09-18T19:44:42;19.70;99.90
4090;DHT22;2059;48.538;12.146;2023-09-18T19:49:45;19.60;99.90
4090;DHT22;2059;48.538;12.146;2023-09-18T19:54:47;19.60;99.90
4090;DHT22;2059;48.538;12.146;2023-09-18T19:59:49;19.60;99.90
4090;DHT22;2059;48.538;12.146;2023-09-18T20:04:54;19.60;99.90
4090;DHT22;2059;48.538;12.146;2023-09-18T20:09:59;19.80;99.90
4090;DHT22;2059;48.538;12.146;2023-09-18T20:15:03;19.60;99.90
4090;DHT22;2059;48.538;12.146;2023-09-18T20:20:09;19.60;99.90
4090;DHT22;2059;48.538;12.146;2023-09-18T20:25:11;19.60;99.90
4090;DHT22;2059;48.538;12.146;2023-09-18T20:30:14;19.60;99.90
4090;DHT22;2059;48.538;12.146;2023-09-18T20:35:18;19.60;99.90
4090;DHT22;2059;48.538;12.146;2023-09-18T20:40:22;19.60;99.90
4090;DHT22;2059;48.538;12.146;2023-09-18T20:45:24;19.60;99.90
4090;DHT22;2059;48.538;12.146;2023-09-18T20:50:28;19.60;99.90
4090;DHT22;2059;48.538;12.146;2023-09-18T20:55:30;19.60;99.90
4090;DHT22;2059;48.538;12.146;2023-09-18T21:00:32;19.60;99.90
4090;DHT22;2059;48.538;12.146;2023-09-18T21:05:36;19.60;99.90
4090;DHT22;2059;48.538;12.146;2023-09-18T21:10:38;19.60;99.90
4090;DHT22;2059;48.538;12.146;2023-09-18T21:15:40;19.50;99.90
4090;DHT22;2059;48.538;12.146;2023-09-18T21:20:43;19.60;99.90
4090;DHT22;2059;48.538;12.146;2023-09-18T21:25:48;19.50;99.90
4090;DHT22;2059;48.538;12.146;2023-09-18T21:30:51;19.60;99.90
4090;DHT22;2059;48.538;12.146;2023-09-18T21:35:55;19.50;99.90
4090;DHT22;2059;48.538;12.146;2023-09-18T21:40:57;19.50;99.90
4090;DHT22;2059;48.538;12.146;2023-09-18T21:45:59;19.40;99.90
4090;DHT22;2059;48.538;12.146;2023-09-18T21:51:02;19.40;99.90
4090;DHT22;2059;48.538;12.146;2023-09-18T21:56:05;19.40;99.90
4090;DHT22;2059;48.538;12.146;2023-09-18T22:01:07;19.50;99.90
4090;DHT22;2059;48.538;12.146;2023-09-18T22:06:10;19.40;99.90
4090;DHT22;2059;48.538;12.146;2023-09-18T22:11:12;19.40;99.90
4090;DHT22;2059;48.538;12.146;2023-09-18T22:16:14;19.40;99.90
4090;DHT22;2059;48.538;12.146;2023-09-18T22:21:18;19.40;99.90
4090;DHT22;2059;48.538;12.146;2023-09-18T22:26:20;19.30;99.90
4090;DHT22;2059;48.538;12.146;2023-09-18T22:31:22;19.30;99.90
4090;DHT22;2059;48.538;12.146;2023-09-18T22:36:26;19.30;99.90
4090;DHT22;2059;48.538;12.146;2023-09-18T22:57:42;19.30;99.90
4090;DHT22;2059;48.538;12.146;2023-09-18T23:02:46;19.30;99.90
4090;DHT22;2059;48.538;12.146;2023-09-18T23:07:50;19.20;99.90
4090;DHT22;2059;48.538;12.146;2023-09-18T23:12:54;19.30;99.90
4090;DHT22;2059;48.538;12.146;2023-09-18T23:18:04;19.20;99.90
4090;DHT22;2059;48.538;12.146;2023-09-18T23:23:06;19.10;99.90
4090;DHT22;2059;48.538;12.146;2023-09-18T23:28:10;19.10;99.90
4090;DHT22;2059;48.538;12.146;2023-09-18T23:33:15;19.10;99.90
4090;DHT22;2059;48.538;12.146;2023-09-18T23:38:20;19.10;99.90
4090;DHT22;2059;48.538;12.146;2023-09-18T23:43:25;19.10;99.90
4090;DHT22;2059;48.538;12.146;2023-09-18T23:48:29;19.10;99.90
4090;DHT22;2059;48.538;12.146;2023-09-18T23:53:30;19.00;99.90
4090;DHT22;2059;48.538;12.146;2023-09-18T23:58:35;19.00;99.90
